• Join FlightAware (Why Join?)
  • Login
  • US Flag 
11:46PM EST


 

Airport Tracker/Info


-or-


 

Live Flight TrackerFlight Track Log ✈ EGF3289 ✈ 05-May-2012 ✈ KDFW - KPNS

Flight Track Log - Related Links

Times and Time Zones

All times are in EDT time to prevent confusion due to time zone crossing. See the EGF3289 flight status page for this flight to view local times or setup timezone preferences in your user account.

Time Position Orientation Groundspeed Altitude Reporting Facility
EDT Latitude Longitude Course Direction KTS MPH feet Rate Location/Type
08:55AM 32.8355 -97.0333 342° North  Level FlightAware Approximate
08:56AM 32.8808 -97.0508 181° South 160 184 1,300  Level FAA TRACON SMA TRACON (SMA)
09:00AM 32.6311 -97.0547 164° South 276 318 7,800 1,620 Climbing FAA TRACON SMA TRACON (SMA)
09:00AM 32.5786 -97.0364 146° Southeast 293 337 8,900 1,500 Climbing FAA TRACON SMA TRACON (SMA)
09:01AM 32.5086 -96.9814 147° Southeast 306 352 10,300 1,320 Climbing FAA TRACON SMA TRACON (SMA)
09:02AM 32.4564 -96.9417 148° Southeast 321 369 11,200 1,260 Climbing FAA TRACON SMA TRACON (SMA)
09:03AM 32.4086 -96.9058 148° Southeast 332 382 12,000 1,320 Climbing FAA TRACON SMA TRACON (SMA)
09:03AM 32.3531 -96.8644 148° Southeast 340 391 13,000 1,380 Climbing FAA TRACON SMA TRACON (SMA)
09:04AM 32.2972 -96.8228 156° South 343 395 13,900 1,380 Climbing FAA TRACON SMA TRACON (SMA)
09:05AM 32.2431 -96.7939 163° South 349 402 14,800 1,380 Climbing FAA TRACON SMA TRACON (SMA)
09:05AM 32.1783 -96.7703 163° South 351 404 15,800 1,500 Climbing FAA TRACON SMA TRACON (SMA)
09:06AM 32.1133 -96.7467 160° South 353 406 16,900 1,440 Climbing FAA TRACON SMA TRACON (SMA)
09:07AM 32.0561 -96.7222 164° South 355 409 17,800 1,500 Climbing FAA TRACON SMA TRACON (SMA)
09:07AM 31.9903 -96.6997 163° South 355 409 18,900 1,380 Climbing FAA TRACON SMA TRACON (SMA)
09:09AM 31.8436 -96.6478 162° South 359 413 21,100 1,320 Climbing Fort Worth Center
09:10AM 31.7453 -96.6097 159° South 365 420 22,500 1,320 Climbing Fort Worth Center
09:11AM 31.6489 -96.5667 161° South 371 427 23,800 1,260 Climbing Fort Worth Center
09:12AM 31.5686 -96.5350 162° South 370 426 24,700 780 Climbing Houston Center
09:13AM 31.4739 -96.4986 163° South 380 437 25,200 780 Climbing Houston Center
09:14AM 31.3711 -96.4619 161° South 390 449 26,300 900 Climbing Houston Center
09:15AM 31.2619 -96.4178 162° South 397 457 27,000 300 Climbing Houston Center
09:16AM 31.1489 -96.3736 163° South 417 480 27,000  Level Houston Center
09:17AM 31.0294 -96.3317 163° South 442 509 27,100 480 Climbing Houston Center
09:18AM 30.8975 -96.2844 139° Southeast 452 520 28,000 1,140 Climbing Houston Center
09:19AM 30.8067 -96.1933 104° East 431 496 29,400 1,500 Climbing Houston Center
09:20AM 30.7778 -96.0617 105° East 404 465 31,000 1,380 Climbing Houston Center
09:21AM 30.7483 -95.9322 103° East 404 465 32,200 1,200 Climbing Houston Center
09:22AM 30.7214 -95.7983 104° East 410 472 33,400 1,080 Climbing Houston Center
09:23AM 30.6939 -95.6692 102° East 410 472 34,400 840 Climbing Houston Center
09:24AM 30.6722 -95.5550 104° East 410 472 35,200 720 Climbing Houston Center
09:25AM 30.6408 -95.4067 104° East 410 472 35,900 600 Climbing Houston Center
09:26AM 30.6131 -95.2778 104° East 415 478 36,500 540 Climbing Houston Center
09:27AM 30.5853 -95.1442 104° East 420 483 37,000 240 Climbing Houston Center
09:28AM 30.5553 -95.0081 104° East 420 483 37,000  Level Houston Center
09:29AM 30.5256 -94.8647 103° East 431 496 37,000  Level Houston Center
09:30AM 30.4956 -94.7194 104° East 449 517 37,000  Level Houston Center
09:31AM 30.4633 -94.5667 104° East 462 532 37,000  Level Houston Center
09:32AM 30.4367 -94.4431 104° East 462 532 37,000  Level Houston Center
09:33AM 30.4061 -94.3000 105° East 451 519 37,000  Level Houston Center
09:34AM 30.3736 -94.1550 104° East 451 519 37,000  Level Houston Center
09:35AM 30.3386 -93.9953 105° East 462 532 37,000  Level Houston Center
09:36AM 30.3056 -93.8500 105° East 468 539 37,000  Level Houston Center
09:37AM 30.2703 -93.7028 104° East 468 539 37,000  Level Houston Center
09:38AM 30.2372 -93.5506 105° East 474 545 37,000  Level Houston Center
09:39AM 30.2017 -93.3961 103° East 485 558 37,000  Level Houston Center
09:40AM 30.1722 -93.2492 102° East 485 558 37,000  Level Houston Center
09:41AM 30.1444 -93.0972 83° East 474 545 37,000  Level Houston Center
09:42AM 30.1608 -92.9439 80° East 469 540 37,000  Level Houston Center
09:43AM 30.1831 -92.7928 82° East 469 540 37,000  Level Houston Center
09:44AM 30.2008 -92.6439 80° East 469 540 37,000 -60 Level Houston Center
09:45AM 30.2228 -92.4928 81° East 469 540 36,900  Descending Houston Center
09:46AM 30.2422 -92.3439 83° East 469 540 37,000  Climbing Houston Center
09:47AM 30.2575 -92.1925 81° East 464 534 37,000  Level Houston Center
09:48AM 30.2769 -92.0433 81° East 469 540 37,000 -240 Level Houston Center
09:49AM 30.2961 -91.8944 82° East 469 540 36,600 -660 Descending Houston Center
09:50AM 30.3150 -91.7453 80° East 469 540 35,800 -840 Descending Houston Center
09:51AM 30.3381 -91.5936 83° East 469 540 35,000 -420 Descending Houston Center
09:52AM 30.3544 -91.4419 81° East 469 540 35,000  Level Houston Center
09:53AM 30.3750 -91.2928 83° East 464 534 35,000  Level Houston Center
09:54AM 30.3914 -91.1433 83° East 464 534 35,000  Level Houston Center
09:55AM 30.4072 -90.9964 81° East 464 534 35,000  Level Houston Center
09:56AM 30.4275 -90.8494 83° East 464 534 35,000  Level Houston Center
09:57AM 30.4431 -90.7022 83° East 464 534 35,000 -60 Level Houston Center
09:58AM 30.4586 -90.5528 89° East 464 534 34,900 -420 Descending Houston Center
09:59AM 30.4617 -90.4011 89° East 464 534 34,200 -1,020 Descending Houston Center
10:00AM 30.4642 -90.2467 89° East 464 534 32,900 -1,380 Descending Houston Center
10:01AM 30.4667 -90.0903 89° East 470 541 31,500 -1,440 Descending Houston Center
10:02AM 30.4689 -89.9358 87° East 475 547 30,100 -1,500 Descending Houston Center
10:03AM 30.4753 -89.7839 91° East 475 547 28,600 -1,380 Descending Houston Center
10:04AM 30.4736 -89.6611 89° East 475 547 27,400 -1,320 Descending Houston Center
10:05AM 30.4750 -89.4950 90° East 475 547 26,000 -1,500 Descending Houston Center
10:06AM 30.4747 -89.3406 90° East 475 547 24,500 -1,500 Descending Houston Center
10:07AM 30.4742 -89.1961 89° East 470 541 23,100 -1,500 Descending Houston Center
10:08AM 30.4756 -89.0514 91° East 458 527 21,600 -1,440 Descending Houston Center
10:09AM 30.4728 -88.9119 89° East 443 510 20,200 -1,440 Descending Houston Center
10:10AM 30.4742 -88.7744 89° East 431 496 18,700 -1,380 Descending Houston Center
10:11AM 30.4756 -88.6444 90° East 417 480 17,500 -1,440 Descending Houston Center
10:12AM 30.4747 -88.5217 88° East 392 451 15,900 -1,560 Descending Houston Center
10:13AM 30.4781 -88.3961 90° East 381 438 14,400 -1,500 Descending Houston Center
10:14AM 30.4772 -88.2781 90° East 381 438 12,900 -1,020 Descending Houston Center
10:16AM 30.4764 -88.0236 90° East 307 353 11,000 -600 Descending Jacksonville Center
10:17AM 30.4761 -87.9247 80° East 295 339 11,000 -300 Level Jacksonville Center
10:18AM 30.4928 -87.8194 68° East 287 330 10,400 -540 Descending Jacksonville Center
10:19AM 30.5186 -87.7461 73° East 276 318 10,000 -900 Descending Jacksonville Center
10:20AM 30.5403 -87.6653 78° East 270 311 8,700 -1,740 Descending Jacksonville Center
10:21AM 30.5561 -87.5769 81° East 268 308 6,600 -1,980 Descending Jacksonville Center
10:22AM 30.5678 -87.4906 81° East 266 306 4,800 -1,740 Descending Jacksonville Center
10:23AM 30.5789 -87.4117 78° East 257 296 3,200 -1,500 Descending Jacksonville Center
10:24AM 30.5942 -87.3278 80° East 248 285 1,800 -780 Descending Jacksonville Center
10:25AM 30.6053 -87.2536 147° Southeast 229 264 1,700 -120 Descending Jacksonville Center
10:26AM 30.5544 -87.2150 147° Southeast 203 234 1,600 -120 Descending Jacksonville Center